sensor_id;sensor_type;location;lat;lon;timestamp;pressure;altitude;pressure_sealevel;temperature;humidity
59487;BME280;45298;54.918;73.504;2024-01-30T00:02:08;101021.13;;;-15.22;84.78
59487;BME280;45298;54.918;73.504;2024-01-30T00:04:37;101027.25;;;-15.18;84.70
59487;BME280;45298;54.918;73.504;2024-01-30T00:07:06;101030.53;;;-15.21;84.89
59487;BME280;45298;54.918;73.504;2024-01-30T00:09:35;101021.03;;;-15.23;85.11
59487;BME280;45298;54.918;73.504;2024-01-30T00:12:03;101020.16;;;-15.24;85.12
59487;BME280;45298;54.918;73.504;2024-01-30T00:14:32;101022.06;;;-15.20;84.72
59487;BME280;45298;54.918;73.504;2024-01-30T00:17:01;101013.66;;;-15.19;85.25
59487;BME280;45298;54.918;73.504;2024-01-30T00:19:29;101028.69;;;-15.08;84.45
59487;BME280;45298;54.918;73.504;2024-01-30T00:21:58;101023.84;;;-15.04;85.26
59487;BME280;45298;54.918;73.504;2024-01-30T00:24:27;101016.13;;;-15.05;84.50
59487;BME280;45298;54.918;73.504;2024-01-30T00:26:56;101006.56;;;-15.09;84.97
59487;BME280;45298;54.918;73.504;2024-01-30T00:29:25;101008.50;;;-15.05;84.85
59487;BME280;45298;54.918;73.504;2024-01-30T00:31:58;101007.69;;;-15.04;85.09
59487;BME280;45298;54.918;73.504;2024-01-30T00:34:26;101020.06;;;-14.95;84.40
59487;BME280;45298;54.918;73.504;2024-01-30T00:36:58;101011.22;;;-15.02;85.29
59487;BME280;45298;54.918;73.504;2024-01-30T00:39:26;101028.69;;;-14.93;84.37
59487;BME280;45298;54.918;73.504;2024-01-30T00:41:56;101015.66;;;-14.98;85.02
59487;BME280;45298;54.918;73.504;2024-01-30T00:44:24;101013.84;;;-15.00;85.19
59487;BME280;45298;54.918;73.504;2024-01-30T00:46:53;101009.78;;;-14.97;84.82
59487;BME280;45298;54.918;73.504;2024-01-30T00:49:22;101022.81;;;-14.92;85.29
59487;BME280;45298;54.918;73.504;2024-01-30T00:51:51;101015.78;;;-14.96;84.91
59487;BME280;45298;54.918;73.504;2024-01-30T00:54:19;101020.75;;;-14.98;85.12
59487;BME280;45298;54.918;73.504;2024-01-30T00:56:48;101021.53;;;-14.99;84.83
59487;BME280;45298;54.918;73.504;2024-01-30T00:59:17;101015.06;;;-15.09;84.27
59487;BME280;45298;54.918;73.504;2024-01-30T01:01:46;101017.00;;;-15.05;84.36
59487;BME280;45298;54.918;73.504;2024-01-30T01:04:15;101004.63;;;-15.13;85.25
59487;BME280;45298;54.918;73.504;2024-01-30T01:06:44;101006.31;;;-15.14;85.25
59487;BME280;45298;54.918;73.504;2024-01-30T01:09:13;101011.47;;;-15.12;85.32
59487;BME280;45298;54.918;73.504;2024-01-30T01:11:41;101026.13;;;-15.08;85.16
59487;BME280;45298;54.918;73.504;2024-01-30T01:14:10;101017.34;;;-15.13;84.24
59487;BME280;45298;54.918;73.504;2024-01-30T01:16:39;101011.38;;;-15.14;84.19
59487;BME280;45298;54.918;73.504;2024-01-30T01:19:07;101012.25;;;-15.13;85.25
59487;BME280;45298;54.918;73.504;2024-01-30T01:21:36;101009.63;;;-15.15;84.26
59487;BME280;45298;54.918;73.504;2024-01-30T01:24:06;100998.13;;;-15.23;84.40
59487;BME280;45298;54.918;73.504;2024-01-30T01:26:34;101011.38;;;-15.14;84.69
59487;BME280;45298;54.918;73.504;2024-01-30T01:29:03;101012.06;;;-15.16;84.48
59487;BME280;45298;54.918;73.504;2024-01-30T01:31:39;101009.53;;;-15.16;85.05
59487;BME280;45298;54.918;73.504;2024-01-30T01:34:12;101011.22;;;-15.17;83.94
59487;BME280;45298;54.918;73.504;2024-01-30T01:36:41;101021.47;;;-15.15;84.26
59487;BME280;45298;54.918;73.504;2024-01-30T01:39:10;100985.56;;;-15.35;84.17
59487;BME280;45298;54.918;73.504;2024-01-30T01:41:38;101019.63;;;-15.18;84.27
59487;BME280;45298;54.918;73.504;2024-01-30T01:44:08;101011.88;;;-15.20;84.00
59487;BME280;45298;54.918;73.504;2024-01-30T01:46:39;101023.03;;;-15.17;84.19
59487;BME280;45298;54.918;73.504;2024-01-30T01:49:08;101013.31;;;-15.25;84.08
59487;BME280;45298;54.918;73.504;2024-01-30T01:51:37;101022.00;;;-15.21;84.38
59487;BME280;45298;54.918;73.504;2024-01-30T01:54:09;101013.31;;;-15.25;84.59
59487;BME280;45298;54.918;73.504;2024-01-30T01:56:39;101005.31;;;-15.31;84.51
59487;BME280;45298;54.918;73.504;2024-01-30T01:59:08;101002.50;;;-15.36;84.44
59487;BME280;45298;54.918;73.504;2024-01-30T02:01:37;101029.25;;;-15.27;84.17
59487;BME280;45298;54.918;73.504;2024-01-30T02:04:07;101017.19;;;-15.31;84.02
59487;BME280;45298;54.918;73.504;2024-01-30T02:06:36;101010.66;;;-15.41;84.75
59487;BME280;45298;54.918;73.504;2024-01-30T02:09:06;100977.47;;;-15.58;84.23
59487;BME280;45298;54.918;73.504;2024-01-30T02:11:35;101024.53;;;-15.36;84.07
59487;BME280;45298;54.918;73.504;2024-01-30T02:14:05;101012.13;;;-15.45;84.69
59487;BME280;45298;54.918;73.504;2024-01-30T02:16:33;101017.03;;;-15.48;84.21
59487;BME280;45298;54.918;73.504;2024-01-30T02:19:02;101025.75;;;-15.44;84.26
59487;BME280;45298;54.918;73.504;2024-01-30T02:21:31;101023.03;;;-15.47;84.88
59487;BME280;45298;54.918;73.504;2024-01-30T02:24:00;101023.03;;;-15.47;84.46
59487;BME280;45298;54.918;73.504;2024-01-30T02:26:29;101021.06;;;-15.52;84.83
59487;BME280;45298;54.918;73.504;2024-01-30T02:28:58;101023.88;;;-15.47;84.79
59487;BME280;45298;54.918;73.504;2024-01-30T02:31:28;101012.47;;;-15.54;83.69
59487;BME280;45298;54.918;73.504;2024-01-30T02:33:57;101011.63;;;-15.54;84.41
59487;BME280;45298;54.918;73.504;2024-01-30T02:36:26;101017.75;;;-15.51;84.00
59487;BME280;45298;54.918;73.504;2024-01-30T02:38:55;101009.66;;;-15.58;83.75
59487;BME280;45298;54.918;73.504;2024-01-30T02:41:23;101009.59;;;-15.60;84.94
59487;BME280;45298;54.918;73.504;2024-01-30T02:43:52;101018.34;;;-15.55;83.70
59487;BME280;45298;54.918;73.504;2024-01-30T02:46:21;101000.81;;;-15.65;84.50
59487;BME280;45298;54.918;73.504;2024-01-30T02:48:50;100972.88;;;-15.78;84.56
59487;BME280;45298;54.918;73.504;2024-01-30T02:51:19;100991.50;;;-15.65;84.53
59487;BME280;45298;54.918;73.504;2024-01-30T02:53:49;100990.81;;;-15.62;84.84
59487;BME280;45298;54.918;73.504;2024-01-30T02:56:18;100992.63;;;-15.74;84.11
59487;BME280;45298;54.918;73.504;2024-01-30T02:58:47;101028.53;;;-15.55;84.22
59487;BME280;45298;54.918;73.504;2024-01-30T03:01:17;100999.13;;;-15.65;83.89
59487;BME280;45298;54.918;73.504;2024-01-30T03:03:46;101001.78;;;-15.63;83.62
59487;BME280;45298;54.918;73.504;2024-01-30T03:06:15;101000.63;;;-15.68;84.74
59487;BME280;45298;54.918;73.504;2024-01-30T03:08:45;100992.63;;;-15.74;83.59
59487;BME280;45298;54.918;73.504;2024-01-30T03:11:14;101005.13;;;-15.77;83.78
59487;BME280;45298;54.918;73.504;2024-01-30T03:13:43;101007.09;;;-15.73;84.76
59487;BME280;45298;54.918;73.504;2024-01-30T03:16:12;101006.75;;;-15.80;83.91
59487;BME280;45298;54.918;73.504;2024-01-30T03:18:41;100997.81;;;-15.88;84.15
59487;BME280;45298;54.918;73.504;2024-01-30T03:21:09;101001.31;;;-15.86;84.17
59487;BME280;45298;54.918;73.504;2024-01-30T03:23:38;101002.09;;;-15.87;83.82
59487;BME280;45298;54.918;73.504;2024-01-30T03:26:08;100994.81;;;-15.96;84.56
59487;BME280;45298;54.918;73.504;2024-01-30T03:28:37;101009.47;;;-15.91;83.88
59487;BME280;45298;54.918;73.504;2024-01-30T03:31:07;100995.66;;;-15.95;83.33
59487;BME280;45298;54.918;73.504;2024-01-30T03:33:38;101007.69;;;-15.92;83.71
59487;BME280;45298;54.918;73.504;2024-01-30T03:36:08;100960.53;;;-16.16;84.43
59487;BME280;45298;54.918;73.504;2024-01-30T03:38:38;101005.84;;;-15.95;84.01
59487;BME280;45298;54.918;73.504;2024-01-30T03:41:09;100999.19;;;-15.93;84.36
59487;BME280;45298;54.918;73.504;2024-01-30T03:43:38;100994.28;;;-15.90;83.13
59487;BME280;45298;54.918;73.504;2024-01-30T03:46:06;100989.97;;;-15.91;84.56
59487;BME280;45298;54.918;73.504;2024-01-30T03:48:35;100988.75;;;-15.83;84.63
59487;BME280;45298;54.918;73.504;2024-01-30T03:51:04;100986.41;;;-15.80;84.77
59487;BME280;45298;54.918;73.504;2024-01-30T03:53:33;100978.16;;;-15.75;83.86
59487;BME280;45298;54.918;73.504;2024-01-30T03:56:03;100996.78;;;-15.61;83.55
59487;BME280;45298;54.918;73.504;2024-01-30T03:58:33;100984.75;;;-15.64;84.35
59487;BME280;45298;54.918;73.504;2024-01-30T04:01:04;100983.25;;;-15.60;84.08
59487;BME280;45298;54.918;73.504;2024-01-30T04:03:33;100980.31;;;-15.53;84.17
59487;BME280;45298;54.918;73.504;2024-01-30T04:06:02;100981.53;;;-15.46;84.23
59487;BME280;45298;54.918;73.504;2024-01-30T04:08:31;100977.41;;;-15.44;83.98
59487;BME280;45298;54.918;73.504;2024-01-30T04:11:06;100986.16;;;-15.39;83.66
59487;BME280;45298;54.918;73.504;2024-01-30T04:13:35;100984.78;;;-15.34;83.96
59487;BME280;45298;54.918;73.504;2024-01-30T04:16:04;100974.41;;;-15.37;83.01
59487;BME280;45298;54.918;73.504;2024-01-30T04:18:33;100967.56;;;-15.38;83.08
59487;BME280;45298;54.918;73.504;2024-01-30T04:21:02;100986.66;;;-15.31;82.53
59487;BME280;45298;54.918;73.504;2024-01-30T04:23:31;100984.00;;;-15.33;83.68
59487;BME280;45298;54.918;73.504;2024-01-30T04:26:00;100946.78;;;-15.46;82.88
59487;BME280;45298;54.918;73.504;2024-01-30T04:28:29;100979.28;;;-15.27;83.67
59487;BME280;45298;54.918;73.504;2024-01-30T04:30:58;100989.97;;;-15.17;82.45
59487;BME280;45298;54.918;73.504;2024-01-30T04:33:27;100976.44;;;-15.16;83.61
59487;BME280;45298;54.918;73.504;2024-01-30T04:35:56;100986.13;;;-15.11;82.88
59487;BME280;45298;54.918;73.504;2024-01-30T04:38:24;100979.78;;;-15.17;82.00
59487;BME280;45298;54.918;73.504;2024-01-30T04:40:53;100976.53;;;-15.15;82.28
59487;BME280;45298;54.918;73.504;2024-01-30T04:43:22;100988.19;;;-15.04;82.32
59487;BME280;45298;54.918;73.504;2024-01-30T04:45:51;100978.28;;;-14.99;82.89
59487;BME280;45298;54.918;73.504;2024-01-30T04:48:20;100947.84;;;-15.12;82.12
59487;BME280;45298;54.918;73.504;2024-01-30T04:50:49;100971.94;;;-14.91;82.15
59487;BME280;45298;54.918;73.504;2024-01-30T04:53:17;100986.25;;;-14.78;81.65
59487;BME280;45298;54.918;73.504;2024-01-30T04:55:47;100983.53;;;-14.81;82.04
59487;BME280;45298;54.918;73.504;2024-01-30T04:58:15;100991.75;;;-14.70;82.53
59487;BME280;45298;54.918;73.504;2024-01-30T05:00:44;100983.38;;;-14.67;82.18
59487;BME280;45298;54.918;73.504;2024-01-30T05:03:15;100995.13;;;-14.54;82.12
59487;BME280;45298;54.918;73.504;2024-01-30T05:05:44;100985.53;;;-14.59;82.07
59487;BME280;45298;54.918;73.504;2024-01-30T05:08:13;100991.34;;;-14.61;81.82
59487;BME280;45298;54.918;73.504;2024-01-30T05:10:42;100992.50;;;-14.56;81.51
59487;BME280;45298;54.918;73.504;2024-01-30T05:13:10;100989.41;;;-14.50;81.40
59487;BME280;45298;54.918;73.504;2024-01-30T05:15:42;100988.84;;;-14.45;81.66
59487;BME280;45298;54.918;73.504;2024-01-30T05:18:11;100988.28;;;-14.39;81.60
59487;BME280;45298;54.918;73.504;2024-01-30T05:20:39;100985.91;;;-14.36;81.42
59487;BME280;45298;54.918;73.504;2024-01-30T05:23:08;100928.41;;;-14.64;81.03
59487;BME280;45298;54.918;73.504;2024-01-30T05:25:37;100995.03;;;-14.24;81.48
59487;BME280;45298;54.918;73.504;2024-01-30T05:28:06;100990.41;;;-14.15;81.35
59487;BME280;45298;54.918;73.504;2024-01-30T05:30:38;100991.44;;;-14.12;81.11
59487;BME280;45298;54.918;73.504;2024-01-30T05:33:08;101007.81;;;-14.08;81.09
59487;BME280;45298;54.918;73.504;2024-01-30T05:35:40;100964.13;;;-14.31;81.31
59487;BME280;45298;54.918;73.504;2024-01-30T05:38:11;100972.50;;;-14.17;81.36
59487;BME280;45298;54.918;73.504;2024-01-30T05:40:40;100999.53;;;-13.87;81.27
59487;BME280;45298;54.918;73.504;2024-01-30T05:43:09;100996.03;;;-13.73;81.34
59487;BME280;45298;54.918;73.504;2024-01-30T05:45:38;101001.59;;;-13.63;80.77
59487;BME280;45298;54.918;73.504;2024-01-30T05:48:07;100995.69;;;-13.62;81.30
59487;BME280;45298;54.918;73.504;2024-01-30T05:50:36;100986.31;;;-13.63;80.57
59487;BME280;45298;54.918;73.504;2024-01-30T05:53:05;101004.44;;;-13.57;80.20
59487;BME280;45298;54.918;73.504;2024-01-30T05:55:34;101007.31;;;-13.51;81.06
59487;BME280;45298;54.918;73.504;2024-01-30T05:58:03;101008.91;;;-13.53;80.46
59487;BME280;45298;54.918;73.504;2024-01-30T06:00:32;101001.50;;;-13.48;80.67
59487;BME280;45298;54.918;73.504;2024-01-30T06:03:00;101007.09;;;-13.38;80.71
59487;BME280;45298;54.918;73.504;2024-01-30T06:05:29;100985.03;;;-13.37;80.73
59487;BME280;45298;54.918;73.504;2024-01-30T06:07:58;100992.09;;;-13.31;81.03
59487;BME280;45298;54.918;73.504;2024-01-30T06:10:27;100977.22;;;-13.22;80.90
59487;BME280;45298;54.918;73.504;2024-01-30T06:12:56;100981.06;;;-13.14;80.13
59487;BME280;45298;54.918;73.504;2024-01-30T06:15:25;100971.78;;;-13.12;80.54
59487;BME280;45298;54.918;73.504;2024-01-30T06:17:54;100968.13;;;-13.17;79.82
59487;BME280;45298;54.918;73.504;2024-01-30T06:20:23;100983.13;;;-13.07;79.76
59487;BME280;45298;54.918;73.504;2024-01-30T06:22:52;100973.13;;;-13.02;80.41
59487;BME280;45298;54.918;73.504;2024-01-30T06:25:21;100952.53;;;-13.05;80.51
59487;BME280;45298;54.918;73.504;2024-01-30T06:27:50;100965.03;;;-12.93;80.48
59487;BME280;45298;54.918;73.504;2024-01-30T06:30:18;100965.16;;;-12.90;79.73
59487;BME280;45298;54.918;73.504;2024-01-30T06:32:47;100965.22;;;-12.88;79.64
59487;BME280;45298;54.918;73.504;2024-01-30T06:35:16;100962.84;;;-12.85;80.38
59487;BME280;45298;54.918;73.504;2024-01-30T06:37:46;100915.38;;;-12.98;79.71
59487;BME280;45298;54.918;73.504;2024-01-30T06:40:15;100944.81;;;-12.70;79.75
59487;BME280;45298;54.918;73.504;2024-01-30T06:42:44;100945.06;;;-12.64;79.21
59487;BME280;45298;54.918;73.504;2024-01-30T06:45:13;100924.50;;;-12.67;79.90
59487;BME280;45298;54.918;73.504;2024-01-30T06:47:43;100921.16;;;-12.66;80.19
59487;BME280;45298;54.918;73.504;2024-01-30T06:50:12;100917.66;;;-12.68;80.14
59487;BME280;45298;54.918;73.504;2024-01-30T06:52:43;100932.88;;;-12.52;80.21
59487;BME280;45298;54.918;73.504;2024-01-30T06:55:18;100931.31;;;-12.48;80.19
59487;BME280;45298;54.918;73.504;2024-01-30T06:57:48;100930.31;;;-12.52;79.38
59487;BME280;45298;54.918;73.504;2024-01-30T07:00:18;100916.78;;;-12.49;79.73
59487;BME280;45298;54.918;73.504;2024-01-30T07:02:47;100910.69;;;-12.53;78.87
59487;BME280;45298;54.918;73.504;2024-01-30T07:05:16;100922.00;;;-12.48;79.81
59487;BME280;45298;54.918;73.504;2024-01-30T07:07:46;100914.69;;;-12.58;79.17
59487;BME280;45298;54.918;73.504;2024-01-30T07:10:15;100921.41;;;-12.60;79.85
59487;BME280;45298;54.918;73.504;2024-01-30T07:12:44;100929.72;;;-12.46;79.45
59487;BME280;45298;54.918;73.504;2024-01-30T07:15:12;100907.78;;;-12.61;79.17
59487;BME280;45298;54.918;73.504;2024-01-30T07:17:45;100927.75;;;-12.52;79.61
59487;BME280;45298;54.918;73.504;2024-01-30T07:20:14;100920.81;;;-12.54;79.72
59487;BME280;45298;54.918;73.504;2024-01-30T07:22:45;100923.75;;;-12.47;79.21
59487;BME280;45298;54.918;73.504;2024-01-30T07:25:14;100918.50;;;-12.50;79.29
59487;BME280;45298;54.918;73.504;2024-01-30T07:27:43;100920.38;;;-12.46;79.19
59487;BME280;45298;54.918;73.504;2024-01-30T07:30:12;100928.41;;;-12.38;79.48
59487;BME280;45298;54.918;73.504;2024-01-30T07:32:41;100931.06;;;-12.35;79.73
59487;BME280;45298;54.918;73.504;2024-01-30T07:35:09;100914.13;;;-12.33;78.71
59487;BME280;45298;54.918;73.504;2024-01-30T07:37:39;100923.41;;;-12.35;79.44
59487;BME280;45298;54.918;73.504;2024-01-30T07:40:08;100905.59;;;-12.33;79.69
59487;BME280;45298;54.918;73.504;2024-01-30T07:42:37;100885.78;;;-12.37;78.87
59487;BME280;45298;54.918;73.504;2024-01-30T07:45:06;100914.59;;;-12.22;78.03
59487;BME280;45298;54.918;73.504;2024-01-30T07:47:35;100921.22;;;-12.27;77.91
59487;BME280;45298;54.918;73.504;2024-01-30T07:50:04;100913.59;;;-12.25;79.63
59487;BME280;45298;54.918;73.504;2024-01-30T07:52:33;100905.59;;;-12.33;79.04
59487;BME280;45298;54.918;73.504;2024-01-30T07:58:04;100902.09;;;-12.35;79.46
59487;BME280;45298;54.918;73.504;2024-01-30T08:00:33;100901.34;;;-12.33;79.26
59487;BME280;45298;54.918;73.504;2024-01-30T08:03:02;100893.19;;;-12.43;78.70
59487;BME280;45298;54.918;73.504;2024-01-30T08:05:31;100891.81;;;-12.37;78.12
59487;BME280;45298;54.918;73.504;2024-01-30T08:07:59;100895.50;;;-12.30;78.55
59487;BME280;45298;54.918;73.504;2024-01-30T08:10:28;100900.06;;;-12.23;78.15
59487;BME280;45298;54.918;73.504;2024-01-30T08:12:57;100878.78;;;-12.22;78.76
59487;BME280;45298;54.918;73.504;2024-01-30T08:15:26;100886.69;;;-12.17;78.20
59487;BME280;45298;54.918;73.504;2024-01-30T08:17:55;100884.47;;;-12.09;79.02
59487;BME280;45298;54.918;73.504;2024-01-30T08:20:26;100866.22;;;-12.17;78.74
59487;BME280;45298;54.918;73.504;2024-01-30T08:22:55;100882.16;;;-12.03;77.43
59487;BME280;45298;54.918;73.504;2024-01-30T08:25:24;100872.94;;;-12.00;79.40
59487;BME280;45298;54.918;73.504;2024-01-30T08:27:53;100870.13;;;-11.85;77.94
59487;BME280;45298;54.918;73.504;2024-01-30T08:30:21;100872.19;;;-11.76;79.26
59487;BME280;45298;54.918;73.504;2024-01-30T08:32:50;100842.69;;;-11.89;78.86
59487;BME280;45298;54.918;73.504;2024-01-30T08:35:20;100860.41;;;-11.72;77.18
59487;BME280;45298;54.918;73.504;2024-01-30T08:37:49;100860.16;;;-11.78;77.26
59487;BME280;45298;54.918;73.504;2024-01-30T08:40:17;100867.00;;;-11.77;78.92
59487;BME280;45298;54.918;73.504;2024-01-30T08:42:46;100868.34;;;-11.86;77.90
59487;BME280;45298;54.918;73.504;2024-01-30T08:45:15;100845.63;;;-12.01;79.07
59487;BME280;45298;54.918;73.504;2024-01-30T08:47:44;100848.22;;;-11.99;77.91
59487;BME280;45298;54.918;73.504;2024-01-30T08:50:13;100846.34;;;-12.03;79.06
59487;BME280;45298;54.918;73.504;2024-01-30T08:52:42;100817.44;;;-12.22;79.44
59487;BME280;45298;54.918;73.504;2024-01-30T08:55:14;100846.56;;;-11.98;79.39
59487;BME280;45298;54.918;73.504;2024-01-30T08:57:43;100846.47;;;-12.00;77.65
59487;BME280;45298;54.918;73.504;2024-01-30T09:00:12;100844.06;;;-11.95;78.09
59487;BME280;45298;54.918;73.504;2024-01-30T09:02:41;100849.13;;;-11.97;77.63
59487;BME280;45298;54.918;73.504;2024-01-30T09:05:10;100848.03;;;-12.04;78.79
59487;BME280;45298;54.918;73.504;2024-01-30T09:07:39;100841.00;;;-12.09;77.68
59487;BME280;45298;54.918;73.504;2024-01-30T09:10:09;100849.47;;;-12.10;78.47
59487;BME280;45298;54.918;73.504;2024-01-30T09:12:41;100847.63;;;-12.13;78.73
59487;BME280;45298;54.918;73.504;2024-01-30T09:15:10;100858.63;;;-12.16;78.15
59487;BME280;45298;54.918;73.504;2024-01-30T09:17:39;100849.63;;;-12.27;78.34
59487;BME280;45298;54.918;73.504;2024-01-30T09:20:08;100852.72;;;-12.34;77.80
59487;BME280;45298;54.918;73.504;2024-01-30T09:22:38;100849.00;;;-12.41;78.53
59487;BME280;45298;54.918;73.504;2024-01-30T09:25:07;100839.41;;;-12.47;78.63
59487;BME280;45298;54.918;73.504;2024-01-30T09:27:36;100836.75;;;-12.48;78.39
59487;BME280;45298;54.918;73.504;2024-01-30T09:30:05;100829.28;;;-12.43;79.42
59487;BME280;45298;54.918;73.504;2024-01-30T09:32:34;100834.75;;;-12.36;78.81
59487;BME280;45298;54.918;73.504;2024-01-30T09:35:03;100843.94;;;-12.39;79.19
59487;BME280;45298;54.918;73.504;2024-01-30T09:37:32;100844.09;;;-12.36;79.67
59487;BME280;45298;54.918;73.504;2024-01-30T09:40:01;100821.34;;;-12.69;78.45
59487;BME280;45298;54.918;73.504;2024-01-30T09:42:34;100852.75;;;-12.52;78.68
59487;BME280;45298;54.918;73.504;2024-01-30T09:45:05;100857.00;;;-12.53;79.42
59487;BME280;45298;54.918;73.504;2024-01-30T09:47:40;100842.28;;;-12.58;79.64
59487;BME280;45298;54.918;73.504;2024-01-30T09:50:14;100843.00;;;-12.61;78.44
59487;BME280;45298;54.918;73.504;2024-01-30T09:52:44;100846.44;;;-12.61;78.71
59487;BME280;45298;54.918;73.504;2024-01-30T09:55:13;100844.22;;;-12.53;80.19
59487;BME280;45298;54.918;73.504;2024-01-30T09:57:43;100826.06;;;-12.59;80.09
59487;BME280;45298;54.918;73.504;2024-01-30T10:00:12;100854.03;;;-12.42;79.00
59487;BME280;45298;54.918;73.504;2024-01-30T10:02:41;100845.38;;;-12.46;78.71
59487;BME280;45298;54.918;73.504;2024-01-30T10:05:11;100833.06;;;-12.55;78.92
59487;BME280;45298;54.918;73.504;2024-01-30T10:07:52;100848.69;;;-12.49;78.89
59487;BME280;45298;54.918;73.504;2024-01-30T10:10:23;100852.97;;;-12.48;79.46
59487;BME280;45298;54.918;73.504;2024-01-30T10:12:52;100851.00;;;-12.53;80.09
59487;BME280;45298;54.918;73.504;2024-01-30T10:15:21;100850.75;;;-12.59;78.64
59487;BME280;45298;54.918;73.504;2024-01-30T10:17:50;100857.19;;;-12.68;78.58
59487;BME280;45298;54.918;73.504;2024-01-30T10:20:19;100860.41;;;-12.72;78.76
59487;BME280;45298;54.918;73.504;2024-01-30T10:22:50;100864.81;;;-12.87;79.34
59487;BME280;45298;54.918;73.504;2024-01-30T10:25:21;100865.41;;;-12.93;79.12
59487;BME280;45298;54.918;73.504;2024-01-30T10:27:54;100856.50;;;-13.01;79.50
59487;BME280;45298;54.918;73.504;2024-01-30T10:30:24;100860.91;;;-12.99;80.02
59487;BME280;45298;54.918;73.504;2024-01-30T10:32:53;100853.09;;;-13.02;79.75
59487;BME280;45298;54.918;73.504;2024-01-30T10:35:22;100856.38;;;-13.04;80.47
59487;BME280;45298;54.918;73.504;2024-01-30T10:37:51;100868.47;;;-13.00;79.91
59487;BME280;45298;54.918;73.504;2024-01-30T10:40:21;100849.53;;;-13.06;79.93
59487;BME280;45298;54.918;73.504;2024-01-30T10:42:55;100851.13;;;-13.08;79.77
59487;BME280;45298;54.918;73.504;2024-01-30T10:45:26;100844.97;;;-13.11;80.43
59487;BME280;45298;54.918;73.504;2024-01-30T10:47:57;100841.41;;;-13.15;79.58
59487;BME280;45298;54.918;73.504;2024-01-30T10:50:28;100836.09;;;-13.19;79.48
59487;BME280;45298;54.918;73.504;2024-01-30T10:52:59;100840.31;;;-13.20;79.60
59487;BME280;45298;54.918;73.504;2024-01-30T10:55:29;100852.28;;;-13.19;79.83
59487;BME280;45298;54.918;73.504;2024-01-30T10:57:59;100848.72;;;-13.23;80.19
59487;BME280;45298;54.918;73.504;2024-01-30T11:00:28;100846.47;;;-13.34;79.26
59487;BME280;45298;54.918;73.504;2024-01-30T11:02:57;100829.88;;;-13.44;79.77
59487;BME280;45298;54.918;73.504;2024-01-30T11:05:27;100842.56;;;-13.46;80.34
59487;BME280;45298;54.918;73.504;2024-01-30T11:08:11;100843.22;;;-13.50;80.45
59487;BME280;45298;54.918;73.504;2024-01-30T11:10:47;100843.84;;;-13.54;80.59
59487;BME280;45298;54.918;73.504;2024-01-30T11:13:19;100838.16;;;-13.67;80.31
59487;BME280;45298;54.918;73.504;2024-01-30T11:15:48;100856.84;;;-13.68;79.84
59487;BME280;45298;54.918;73.504;2024-01-30T11:18:29;100836.13;;;-13.74;80.38
59487;BME280;45298;54.918;73.504;2024-01-30T11:21:01;100851.56;;;-13.71;80.69
59487;BME280;45298;54.918;73.504;2024-01-30T11:23:33;100847.06;;;-13.76;80.79
59487;BME280;45298;54.918;73.504;2024-01-30T11:26:02;100845.16;;;-13.80;80.83
59487;BME280;45298;54.918;73.504;2024-01-30T11:28:33;100848.34;;;-13.85;80.26
59487;BME280;45298;54.918;73.504;2024-01-30T11:31:04;100856.72;;;-13.87;81.37
59487;BME280;45298;54.918;73.504;2024-01-30T11:33:34;100858.31;;;-13.89;80.54
59487;BME280;45298;54.918;73.504;2024-01-30T11:36:04;100847.63;;;-13.99;80.53
59487;BME280;45298;54.918;73.504;2024-01-30T11:38:35;100856.34;;;-13.95;80.65
59487;BME280;45298;54.918;73.504;2024-01-30T11:41:04;100866.44;;;-13.97;81.14
59487;BME280;45298;54.918;73.504;2024-01-30T11:43:33;100869.88;;;-13.96;81.43
59487;BME280;45298;54.918;73.504;2024-01-30T11:46:06;100862.72;;;-14.03;81.01
59487;BME280;45298;54.918;73.504;2024-01-30T11:48:35;100866.16;;;-14.03;81.18
59487;BME280;45298;54.918;73.504;2024-01-30T11:51:05;100854.84;;;-14.08;81.31
59487;BME280;45298;54.918;73.504;2024-01-30T11:53:34;100869.63;;;-14.01;81.55
59487;BME280;45298;54.918;73.504;2024-01-30T11:56:06;100847.41;;;-14.03;81.56
59487;BME280;45298;54.918;73.504;2024-01-30T11:58:35;100860.69;;;-13.92;81.41
59487;BME280;45298;54.918;73.504;2024-01-30T12:01:04;100866.59;;;-13.93;80.99
59487;BME280;45298;54.918;73.504;2024-01-30T12:03:33;100817.66;;;-14.21;81.36
59487;BME280;45298;54.918;73.504;2024-01-30T12:06:03;100841.53;;;-14.02;81.16
59487;BME280;45298;54.918;73.504;2024-01-30T12:08:33;100839.69;;;-14.05;81.51
59487;BME280;45298;54.918;73.504;2024-01-30T12:11:02;100824.88;;;-14.12;81.22
59487;BME280;45298;54.918;73.504;2024-01-30T12:13:36;100836.59;;;-14.16;81.26
59487;BME280;45298;54.918;73.504;2024-01-30T12:16:05;100839.06;;;-14.17;81.22
59487;BME280;45298;54.918;73.504;2024-01-30T12:18:34;100848.41;;;-14.18;81.34
59487;BME280;45298;54.918;73.504;2024-01-30T12:21:03;100806.44;;;-14.41;81.70
59487;BME280;45298;54.918;73.504;2024-01-30T12:23:32;100834.53;;;-14.23;81.68
59487;BME280;45298;54.918;73.504;2024-01-30T12:26:02;100845.75;;;-14.19;82.12
59487;BME280;45298;54.918;73.504;2024-01-30T12:28:35;100827.63;;;-14.25;81.70
59487;BME280;45298;54.918;73.504;2024-01-30T12:31:04;100823.78;;;-14.17;81.57
59487;BME280;45298;54.918;73.504;2024-01-30T12:33:33;100826.25;;;-14.19;82.06
59487;BME280;45298;54.918;73.504;2024-01-30T12:36:05;100822.44;;;-14.27;81.75
59487;BME280;45298;54.918;73.504;2024-01-30T12:38:34;100839.84;;;-14.18;81.73
59487;BME280;45298;54.918;73.504;2024-01-30T12:41:03;100825.06;;;-14.25;82.00
59487;BME280;45298;54.918;73.504;2024-01-30T12:43:33;100830.41;;;-14.21;82.34
59487;BME280;45298;54.918;73.504;2024-01-30T12:46:06;100799.09;;;-14.35;81.65